DAL147 KFLL-MMUN
Flight info
| Callsign | DAL147 |
|---|---|
| Flight time | N/A |
| Altitude | 36000 |
| Route | GLADZ4 LULLS Y196 CANOA UB879 NOSAT NOSAT1B |
| Aircraft | A20N/M-SDE2E3FGHIRWXY/LB1 |
Departure
| Time | 2026-05-04 00:16 |
|---|---|
| Airport | Fort Lauderdale Hollywood International Airport (KFLL) |
Arrival
| Time | N/A |
|---|---|
| Airport | Cancún International Airport (MMUN) |
| Time | Latitude | Longitude | Altitude | Speed | Heading |
|---|---|---|---|---|---|
| 2026-05-03 23:49 | 26.06934 | -80.14607 | 16 ft | 0 kts | 90° |
| 2026-05-03 23:55 | 26.06934 | -80.14609 | 15 ft | 2 kts | 90° |
| 2026-05-03 23:56 | 26.06935 | -80.14638 | 15 ft | 4 kts | 93° |
| 2026-05-03 23:56 | 26.06936 | -80.14664 | 17 ft | 3 kts | 92° |
| 2026-05-03 23:56 | 26.06941 | -80.14691 | 16 ft | 4 kts | 131° |
| 2026-05-03 23:56 | 26.06961 | -80.14706 | 16 ft | 2 kts | 165° |
| 2026-05-03 23:57 | 26.06967 | -80.14708 | 17 ft | 0 kts | 165° |
| 2026-05-03 23:59 | 26.06988 | -80.14759 | 15 ft | 0 kts | 165° |
| 2026-05-03 23:59 | 26.06983 | -80.14758 | 15 ft | 3 kts | 175° |
| 2026-05-04 00:00 | 26.06920 | -80.14804 | 16 ft | 18 kts | 239° |
| 2026-05-04 00:00 | 26.06914 | -80.14982 | 15 ft | 28 kts | 272° |
| 2026-05-04 00:00 | 26.06863 | -80.15129 | 15 ft | 15 kts | 175° |
| 2026-05-04 00:00 | 26.06748 | -80.15129 | 16 ft | 17 kts | 181° |
| 2026-05-04 00:01 | 26.06696 | -80.15195 | 22 ft | 11 kts | 269° |
| 2026-05-04 00:01 | 26.06696 | -80.15296 | 16 ft | 17 kts | 270° |
| 2026-05-04 00:01 | 26.06697 | -80.15442 | 16 ft | 22 kts | 270° |
| 2026-05-04 00:01 | 26.06697 | -80.15587 | 16 ft | 0 kts | 270° |
| 2026-05-04 00:04 | 26.06697 | -80.15592 | 16 ft | 2 kts | 270° |
| 2026-05-04 00:04 | 26.06697 | -80.15620 | 25 ft | 5 kts | 270° |
| 2026-05-04 00:04 | 26.06698 | -80.15662 | 16 ft | 0 kts | 270° |
| 2026-05-04 00:05 | 26.06698 | -80.15672 | 16 ft | 3 kts | 270° |
| 2026-05-04 00:05 | 26.06698 | -80.15680 | 16 ft | 1 kts | 270° |
| 2026-05-04 00:05 | 26.06698 | -80.15681 | 16 ft | 0 kts | 270° |
| 2026-05-04 00:06 | 26.06698 | -80.15684 | 16 ft | 3 kts | 270° |
| 2026-05-04 00:06 | 26.06698 | -80.15719 | 15 ft | 0 kts | 271° |
| 2026-05-04 00:08 | 26.06699 | -80.15735 | 15 ft | 0 kts | 271° |
| 2026-05-04 00:08 | 26.06699 | -80.15742 | 18 ft | 2 kts | 271° |
| 2026-05-04 00:09 | 26.06699 | -80.15762 | 15 ft | 0 kts | 270° |
| 2026-05-04 00:09 | 26.06699 | -80.15751 | 17 ft | 0 kts | 270° |
| 2026-05-04 00:10 | 26.06699 | -80.15757 | 17 ft | 2 kts | 270° |
| 2026-05-04 00:10 | 26.06699 | -80.15764 | 15 ft | 0 kts | 270° |
| 2026-05-04 00:11 | 26.06699 | -80.15754 | 17 ft | 0 kts | 270° |
| 2026-05-04 00:11 | 26.06699 | -80.15764 | 15 ft | 0 kts | 270° |
| 2026-05-04 00:12 | 26.06698 | -80.15780 | 15 ft | 4 kts | 264° |
| 2026-05-04 00:12 | 26.06684 | -80.15810 | 17 ft | 0 kts | 223° |
| 2026-05-04 00:13 | 26.06674 | -80.15815 | 16 ft | 3 kts | 206° |
| 2026-05-04 00:14 | 26.06650 | -80.15822 | 16 ft | 4 kts | 188° |
| 2026-05-04 00:14 | 26.06616 | -80.15817 | 17 ft | 5 kts | 160° |
| 2026-05-04 00:14 | 26.06597 | -80.15793 | 18 ft | 4 kts | 118° |
| 2026-05-04 00:14 | 26.06590 | -80.15764 | 19 ft | 0 kts | 94° |
| 2026-05-04 00:15 | 26.06589 | -80.15637 | 22 ft | 50 kts | 89° |
| 2026-05-04 00:15 | 26.06588 | -80.14965 | 18 ft | 120 kts | 91° |
| 2026-05-04 00:15 | 26.06578 | -80.13840 | 77 ft | 169 kts | 90° |
| 2026-05-04 00:15 | 26.06549 | -80.12441 | 491 ft | 186 kts | 88° |
| 2026-05-04 00:16 | 26.06648 | -80.11069 | 1445 ft | 171 kts | 70° |
| 2026-05-04 00:16 | 26.07192 | -80.09922 | 2196 ft | 173 kts | 53° |
| 2026-05-04 00:16 | 26.07927 | -80.08757 | 2592 ft | 195 kts | 54° |
| 2026-05-04 00:16 | 26.08828 | -80.07528 | 2958 ft | 215 kts | 39° |
| 2026-05-04 00:17 | 26.10176 | -80.06648 | 3293 ft | 236 kts | 17° |
| 2026-05-04 00:17 | 26.11807 | -80.06023 | 3705 ft | 260 kts | 17° |
| 2026-05-04 00:17 | 26.13570 | -80.05332 | 4307 ft | 273 kts | 17° |
| 2026-05-04 00:17 | 26.15393 | -80.04914 | 5087 ft | 275 kts | 357° |
| 2026-05-04 00:18 | 26.17264 | -80.05265 | 5890 ft | 273 kts | 337° |
| 2026-05-04 00:18 | 26.19067 | -80.05975 | 6704 ft | 276 kts | 336° |
| 2026-05-04 00:18 | 26.20880 | -80.06713 | 7495 ft | 278 kts | 330° |
| 2026-05-04 00:18 | 26.22460 | -80.07908 | 8281 ft | 273 kts | 310° |
| 2026-05-04 00:19 | 26.23480 | -80.09671 | 9093 ft | 268 kts | 285° |
| 2026-05-04 00:19 | 26.23661 | -80.11697 | 9867 ft | 268 kts | 260° |
| 2026-05-04 00:19 | 26.22995 | -80.13617 | 10397 ft | 280 kts | 237° |
| 2026-05-04 00:19 | 26.21728 | -80.15425 | 10571 ft | 304 kts | 232° |
| 2026-05-04 00:20 | 26.20331 | -80.17252 | 10833 ft | 322 kts | 231° |
| 2026-05-04 00:20 | 26.18842 | -80.19179 | 11541 ft | 325 kts | 231° |
| 2026-05-04 00:20 | 26.17372 | -80.21103 | 12278 ft | 327 kts | 231° |
| 2026-05-04 00:20 | 26.15918 | -80.23027 | 12974 ft | 330 kts | 232° |
| 2026-05-04 00:21 | 26.14419 | -80.25025 | 13689 ft | 333 kts | 232° |
| 2026-05-04 00:21 | 26.12955 | -80.26985 | 14320 ft | 335 kts | 232° |
| 2026-05-04 00:21 | 26.11443 | -80.29010 | 14974 ft | 336 kts | 232° |
| 2026-05-04 00:21 | 26.09945 | -80.31015 | 15611 ft | 338 kts | 232° |
| 2026-05-04 00:22 | 26.08437 | -80.33032 | 16230 ft | 340 kts | 232° |
| 2026-05-04 00:22 | 26.07432 | -80.34377 | 16641 ft | 341 kts | 232° |
| 2026-05-04 00:22 | 26.05416 | -80.37072 | 17447 ft | 344 kts | 232° |
| 2026-05-04 00:22 | 26.03878 | -80.39126 | 18034 ft | 346 kts | 232° |
| 2026-05-04 00:23 | 26.02839 | -80.40512 | 18410 ft | 347 kts | 232° |
| 2026-05-04 00:23 | 26.01288 | -80.42582 | 18939 ft | 349 kts | 232° |
| 2026-05-04 00:23 | 25.99735 | -80.44654 | 19436 ft | 350 kts | 232° |
| 2026-05-04 00:23 | 25.98168 | -80.46741 | 19949 ft | 352 kts | 232° |
| 2026-05-04 00:24 | 25.96596 | -80.48836 | 20452 ft | 354 kts | 232° |
| 2026-05-04 00:24 | 25.95015 | -80.50940 | 20955 ft | 356 kts | 232° |
| 2026-05-04 00:24 | 25.93423 | -80.53060 | 21316 ft | 361 kts | 232° |
| 2026-05-04 00:24 | 25.91808 | -80.55209 | 21810 ft | 361 kts | 232° |
| 2026-05-04 00:25 | 25.90194 | -80.57354 | 22303 ft | 363 kts | 232° |
| 2026-05-04 00:25 | 25.88592 | -80.59484 | 22755 ft | 365 kts | 232° |
| 2026-05-04 00:25 | 25.86957 | -80.61655 | 23207 ft | 367 kts | 232° |
| 2026-05-04 00:25 | 25.85316 | -80.63834 | 23634 ft | 370 kts | 232° |
| 2026-05-04 00:26 | 25.83677 | -80.66010 | 24017 ft | 371 kts | 232° |
| 2026-05-04 00:26 | 25.82019 | -80.68210 | 24399 ft | 373 kts | 232° |
| 2026-05-04 00:26 | 25.80386 | -80.70455 | 24770 ft | 374 kts | 236° |
| 2026-05-04 00:26 | 25.78997 | -80.72871 | 25135 ft | 374 kts | 242° |
| 2026-05-04 00:27 | 25.77880 | -80.75462 | 25496 ft | 375 kts | 248° |
| 2026-05-04 00:27 | 25.77042 | -80.78190 | 25842 ft | 377 kts | 253° |
| 2026-05-04 00:27 | 25.76297 | -80.80984 | 26186 ft | 379 kts | 252° |
| 2026-05-04 00:27 | 25.75538 | -80.83789 | 26510 ft | 380 kts | 252° |
| 2026-05-04 00:28 | 25.74770 | -80.86604 | 26857 ft | 382 kts | 252° |
| 2026-05-04 00:28 | 25.73998 | -80.89430 | 27185 ft | 383 kts | 252° |
| 2026-05-04 00:28 | 25.73223 | -80.92264 | 27532 ft | 384 kts | 252° |
| 2026-05-04 00:28 | 25.72446 | -80.95107 | 27904 ft | 385 kts | 252° |
| 2026-05-04 00:29 | 25.71666 | -80.97956 | 28193 ft | 387 kts | 252° |
| 2026-05-04 00:29 | 25.70894 | -81.00779 | 28491 ft | 388 kts | 252° |
| 2026-05-04 00:29 | 25.70097 | -81.03688 | 28796 ft | 390 kts | 252° |
| 2026-05-04 00:29 | 25.69317 | -81.06533 | 29087 ft | 392 kts | 252° |
| 2026-05-04 00:30 | 25.68524 | -81.09421 | 29375 ft | 393 kts | 252° |
| 2026-05-04 00:30 | 25.67727 | -81.12324 | 29615 ft | 395 kts | 252° |
| 2026-05-04 00:30 | 25.66919 | -81.15260 | 29727 ft | 400 kts | 252° |
| 2026-05-04 00:30 | 25.66105 | -81.18217 | 30013 ft | 402 kts | 252° |
| 2026-05-04 00:31 | 25.65145 | -81.21129 | 30271 ft | 403 kts | 245° |
| 2026-05-04 00:31 | 25.63798 | -81.23855 | 30506 ft | 406 kts | 238° |
| 2026-05-04 00:31 | 25.62083 | -81.26349 | 30744 ft | 409 kts | 231° |
| 2026-05-04 00:31 | 25.60033 | -81.28563 | 30985 ft | 414 kts | 225° |
| 2026-05-04 00:32 | 25.57891 | -81.30671 | 31392 ft | 410 kts | 225° |
| 2026-05-04 00:32 | 25.55770 | -81.32771 | 31791 ft | 407 kts | 225° |
| 2026-05-04 00:32 | 25.53666 | -81.34858 | 32148 ft | 406 kts | 225° |
| 2026-05-04 00:32 | 25.51565 | -81.36943 | 32474 ft | 404 kts | 225° |
| 2026-05-04 00:33 | 25.49475 | -81.39015 | 32804 ft | 403 kts | 225° |
| 2026-05-04 00:33 | 25.45309 | -81.43142 | 33421 ft | 400 kts | 226° |
| 2026-05-04 00:33 | 25.43238 | -81.45191 | 33732 ft | 399 kts | 226° |
| 2026-05-04 00:34 | 25.41171 | -81.47236 | 34016 ft | 398 kts | 226° |
| 2026-05-04 00:34 | 25.39108 | -81.49275 | 34235 ft | 397 kts | 226° |
| 2026-05-04 00:34 | 25.37043 | -81.51317 | 34280 ft | 401 kts | 226° |
| 2026-05-04 00:34 | 25.34951 | -81.53385 | 34381 ft | 403 kts | 226° |
| 2026-05-04 00:35 | 25.32860 | -81.55448 | 34584 ft | 403 kts | 226° |
| 2026-05-04 00:35 | 25.30771 | -81.57508 | 34807 ft | 402 kts | 226° |
| 2026-05-04 00:35 | 25.28686 | -81.59563 | 35022 ft | 401 kts | 226° |
| 2026-05-04 00:35 | 25.26609 | -81.61610 | 35233 ft | 400 kts | 226° |
| 2026-05-04 00:36 | 25.24538 | -81.63651 | 35443 ft | 399 kts | 226° |
| 2026-05-04 00:36 | 25.22469 | -81.65688 | 35666 ft | 398 kts | 226° |
| 2026-05-04 00:36 | 25.20405 | -81.67702 | 35879 ft | 395 kts | 225° |
| 2026-05-04 00:37 | 25.15887 | -81.71135 | 36019 ft | 400 kts | 215° |
| 2026-05-04 00:37 | 25.10745 | -81.73628 | 36029 ft | 410 kts | 205° |
| 2026-05-04 00:38 | 25.05283 | -81.75573 | 36023 ft | 415 kts | 205° |
| 2026-05-04 00:38 | 24.99785 | -81.77551 | 36020 ft | 415 kts | 205° |
| 2026-05-04 00:39 | 24.94315 | -81.79519 | 36021 ft | 415 kts | 205° |
| 2026-05-04 00:39 | 24.88823 | -81.81492 | 36022 ft | 415 kts | 205° |
| 2026-05-04 00:40 | 24.83325 | -81.83466 | 36029 ft | 415 kts | 205° |
| 2026-05-04 00:40 | 24.77830 | -81.85437 | 35987 ft | 416 kts | 205° |
| 2026-05-04 00:41 | 24.72280 | -81.87429 | 36023 ft | 421 kts | 205° |
| 2026-05-04 00:41 | 24.66714 | -81.89419 | 36023 ft | 420 kts | 205° |
| 2026-05-04 00:42 | 24.61153 | -81.91407 | 36023 ft | 420 kts | 205° |
| 2026-05-04 00:42 | 24.55625 | -81.93381 | 36019 ft | 420 kts | 205° |
| 2026-05-04 00:43 | 24.50491 | -81.96168 | 36020 ft | 406 kts | 221° |
| 2026-05-04 00:43 | 24.46534 | -82.00448 | 36019 ft | 397 kts | 237° |
| 2026-05-04 00:44 | 24.43886 | -82.05714 | 36024 ft | 394 kts | 246° |
| 2026-05-04 00:44 | 24.41522 | -82.11140 | 36032 ft | 395 kts | 246° |
| 2026-05-04 00:45 | 24.39140 | -82.16571 | 36023 ft | 393 kts | 246° |
| 2026-05-04 00:45 | 24.37971 | -82.19233 | 36024 ft | 380 kts | 246° |
| 2026-05-04 00:45 | 24.36840 | -82.21806 | 36027 ft | 373 kts | 246° |
| 2026-05-04 00:46 | 24.34565 | -82.26992 | 36025 ft | 382 kts | 246° |
| 2026-05-04 00:46 | 24.32235 | -82.32295 | 36021 ft | 390 kts | 246° |
| 2026-05-04 00:47 | 24.29855 | -82.37702 | 36017 ft | 394 kts | 246° |
| 2026-05-04 00:47 | 24.27493 | -82.43058 | 36027 ft | 389 kts | 246° |
| 2026-05-04 00:48 | 24.25134 | -82.48406 | 36025 ft | 390 kts | 246° |
| 2026-05-04 00:48 | 24.22767 | -82.53766 | 36024 ft | 390 kts | 246° |
| 2026-05-04 00:49 | 24.20401 | -82.59117 | 35991 ft | 390 kts | 246° |
| 2026-05-04 00:49 | 24.18015 | -82.64506 | 36029 ft | 394 kts | 246° |
| 2026-05-04 00:50 | 24.15619 | -82.69912 | 36028 ft | 395 kts | 246° |
| 2026-05-04 00:50 | 24.13227 | -82.75300 | 36028 ft | 392 kts | 246° |
| 2026-05-04 00:51 | 24.10841 | -82.80671 | 36029 ft | 390 kts | 246° |
| 2026-05-04 00:51 | 24.08469 | -82.86005 | 36023 ft | 390 kts | 246° |
| 2026-05-04 00:52 | 24.06090 | -82.91349 | 36023 ft | 390 kts | 246° |
| 2026-05-04 00:52 | 24.03711 | -82.96685 | 36023 ft | 390 kts | 246° |
| 2026-05-04 00:53 | 24.01345 | -83.01986 | 36026 ft | 390 kts | 246° |
| 2026-05-04 00:53 | 23.98567 | -83.07113 | 36025 ft | 393 kts | 238° |
| 2026-05-04 00:54 | 23.95295 | -83.11919 | 36025 ft | 394 kts | 237° |
| 2026-05-04 00:54 | 23.92022 | -83.16733 | 36028 ft | 393 kts | 237° |
| 2026-05-04 00:55 | 23.88754 | -83.21538 | 36025 ft | 396 kts | 237° |
| 2026-05-04 00:55 | 23.85468 | -83.26365 | 36023 ft | 395 kts | 237° |
| 2026-05-04 00:56 | 23.82186 | -83.31179 | 36023 ft | 395 kts | 237° |
| 2026-05-04 00:56 | 23.78926 | -83.35956 | 36023 ft | 395 kts | 237° |
| 2026-05-04 00:57 | 23.75619 | -83.40799 | 36023 ft | 395 kts | 237° |
| 2026-05-04 00:57 | 23.72354 | -83.45574 | 36023 ft | 395 kts | 237° |
| 2026-05-04 00:58 | 23.69065 | -83.50380 | 36022 ft | 395 kts | 237° |
| 2026-05-04 00:58 | 23.65779 | -83.55179 | 36026 ft | 395 kts | 237° |
| 2026-05-04 00:59 | 23.62489 | -83.59978 | 36026 ft | 395 kts | 237° |
| 2026-05-04 00:59 | 23.59194 | -83.64773 | 35998 ft | 395 kts | 237° |
| 2026-05-04 01:00 | 23.55899 | -83.69567 | 36011 ft | 395 kts | 237° |
| 2026-05-04 01:00 | 23.52597 | -83.74367 | 36012 ft | 396 kts | 237° |
| 2026-05-04 01:01 | 23.49288 | -83.79173 | 36011 ft | 397 kts | 237° |
| 2026-05-04 01:01 | 23.45976 | -83.83979 | 36014 ft | 397 kts | 237° |
| 2026-05-04 01:02 | 23.42653 | -83.88796 | 36020 ft | 398 kts | 237° |
| 2026-05-04 01:02 | 23.39325 | -83.93617 | 36029 ft | 398 kts | 237° |
| 2026-05-04 01:03 | 23.35992 | -83.98438 | 36032 ft | 399 kts | 237° |
| 2026-05-04 01:03 | 23.32675 | -84.03231 | 36034 ft | 399 kts | 237° |
| 2026-05-04 01:04 | 23.29333 | -84.08056 | 36020 ft | 400 kts | 237° |
| 2026-05-04 01:04 | 23.25984 | -84.12887 | 36020 ft | 399 kts | 237° |
| 2026-05-04 01:05 | 23.22642 | -84.17704 | 36020 ft | 399 kts | 237° |
| 2026-05-04 01:05 | 23.19292 | -84.22527 | 36020 ft | 399 kts | 237° |
| 2026-05-04 01:06 | 23.15941 | -84.27348 | 36020 ft | 399 kts | 237° |
| 2026-05-04 01:06 | 23.12590 | -84.32165 | 36021 ft | 399 kts | 237° |
| 2026-05-04 01:07 | 23.09239 | -84.36976 | 36020 ft | 399 kts | 237° |
| 2026-05-04 01:07 | 23.05885 | -84.41788 | 36021 ft | 399 kts | 237° |
| 2026-05-04 01:08 | 23.02531 | -84.46595 | 36022 ft | 399 kts | 237° |
| 2026-05-04 01:08 | 22.99197 | -84.51367 | 36000 ft | 400 kts | 237° |
| 2026-05-04 01:09 | 22.96385 | -84.55392 | 36001 ft | 400 kts | 237° |
| 2026-05-04 01:09 | 22.92474 | -84.60982 | 36005 ft | 400 kts | 237° |
| 2026-05-04 01:10 | 22.89101 | -84.65798 | 36009 ft | 401 kts | 237° |
| 2026-05-04 01:10 | 22.86273 | -84.69833 | 36012 ft | 401 kts | 237° |
| 2026-05-04 01:11 | 22.82886 | -84.74661 | 36019 ft | 402 kts | 237° |
| 2026-05-04 01:11 | 22.79518 | -84.79458 | 36021 ft | 403 kts | 237° |
| 2026-05-04 01:12 | 22.76123 | -84.84288 | 36025 ft | 403 kts | 237° |
| 2026-05-04 01:12 | 22.72720 | -84.89126 | 36028 ft | 404 kts | 236° |
| 2026-05-04 01:13 | 22.69314 | -84.93963 | 36010 ft | 404 kts | 237° |
| 2026-05-04 01:13 | 22.65906 | -84.98799 | 36008 ft | 404 kts | 237° |
| 2026-05-04 01:14 | 22.62491 | -85.03641 | 36014 ft | 405 kts | 237° |
| 2026-05-04 01:14 | 22.59080 | -85.08489 | 36015 ft | 405 kts | 237° |
| 2026-05-04 01:15 | 22.55695 | -85.13363 | 36022 ft | 405 kts | 237° |
| 2026-05-04 01:15 | 22.52309 | -85.18235 | 36019 ft | 405 kts | 237° |
| 2026-05-04 01:16 | 22.48913 | -85.23109 | 36028 ft | 406 kts | 237° |
| 2026-05-04 01:16 | 22.45511 | -85.27985 | 36016 ft | 406 kts | 237° |
| 2026-05-04 01:17 | 22.42113 | -85.32851 | 36016 ft | 406 kts | 237° |
| 2026-05-04 01:17 | 22.38707 | -85.37724 | 36006 ft | 406 kts | 237° |
| 2026-05-04 01:18 | 22.38070 | -85.38635 | 36016 ft | 406 kts | 237° |